Melrose, Florida
Current Conditions -  °F | °C
As of 2:35 PM on Friday 28 Nov 2014 (Local Time) from K42J Reporting Station
Clear Clear  
Wind Chill: 55°   Ceiling: Unl
Heat Index: 55°   Visibility: 10mi
Dew Point: 28°   Wind: 8mph
Humidity: 36%   Direction: 40°NE
Pressure: 30.3"   Gusts: NA
Location:  29.71°N, 82.05°W
Report Text: K42J 281935Z AUTO 04007KT 10SM CLR 13/M02 A3030 RMK AO1 TSNO
Loading
Personal Weather Stations






























Interactive Weather Map New forecast layout! Learn more

10-Day Weather Forecast

Advertisements
Track Severe Weather on mobile